Tequesta, FL (33469)

9:43 PM EDT on August 26, 2016 (GMT -0400)
Rolling Hills | | Change Station

Elev 23 ft 26.99 °N, 80.09 °W | Updated 9 seconds ago

Mostly Cloudy
Mostly Cloudy
85.5 °F
Feels Like 99 °F
N
3.4
Wind Variable Wind from East
Gusts 4.9 mph

Today
High -- | Low -- °F
--% Chance of Precip.
Yesterday
High -- | Low -- °F
Precip. -- in
Pressure 29.96 in
Visibility 7.0 miles
Clouds Scattered Clouds 2000 ft
Mostly Cloudy 3000 ft
Heat Index 99 °F
Dew Point 79 °F
Humidity 82%
Rainfall 0.33 in
Snow Depth Not available.
6:57 AM 7:46 PM
Waning Crescent, 29% visible
METAR KSUA 270047Z 09007KT 7SM SCT020 BKN030 29/26 A2996
Pressure 29.96 in
Visibility 7.0 miles
Clouds Scattered Clouds 2000 ft
Mostly Cloudy 3000 ft
Heat Index 99 °F
Dew Point 79 °F
Humidity 82%
Rainfall 0.33 in
Snow Depth Not available.
6:57 AM 7:46 PM
Waning Crescent, 29% visible
METAR KSUA 270047Z 09007KT 7SM SCT020 BKN030 29/26 A2996

10-Day Weather Forecast

Almanac

Astronomy

Aug. 26, 2016 Rise Set
Actual Time
Civil Twilight
Nautical Twilight
Astronomical Twilight
Moon
Length of Visible Light
Length of Day
Tomorrow will be .
, % of the Moon is Illuminated

Today's Extremes

State Highs State Lows

Community

WunderPhotos

Upload Photos

1,935,268 photos uploaded!

WunderBlog® & News

Nearby

Air Quality

  Air Quality AQ Index Pollutant
Not available.

Snow Depth

Station Depth Elevation

Earthquake Activity

City Distance Mag. Time & Date
Minimum magnitude displayed is 2.5.

Coastal Water Temperatures

Place Temperature

Stations

Nearby Weather Stations

Station Location Temp. Windchill Dew Point Humidity Wind Precip. Elev Updated Type
                   

Watches & Warnings

There are currently no watches in effect.